Upstream stations:
Downstream station:
SHEF ID: TALO2 Illinois River near Tahlequah, O
STATION TYPE:
Regulating: Stage = 11.00, Flow = 9049
STAGE RIV-FLOW BAT-LOAD
ft cfs volt
Ccp-Rev Ccp-Rev Ccp-Rev
(US/Central)
03/23 00:00 9.16 5229 12.25
03/23 01:00 9.20 5303 12.25
03/23 02:00 9.32 5524 12.25
03/23 03:00 9.42 5708 12.25
03/23 04:00 9.48 5819 12.25
03/23 05:00 9.54 5932 12.25
03/23 06:00 9.57 5989 12.25
03/23 07:00 9.54 5932 12.25
03/23 08:00 9.51 5875 12.25
03/23 09:00 9.42 5708 12.33
03/23 10:00 9.34 5561 12.49
03/23 11:00 9.24 5376 12.89
03/23 12:00 9.16 5229 12.97
03/23 13:00 9.11 5137 12.81
03/23 14:00 8.99 4916 12.89
03/23 15:00 8.95 4842 12.97
03/23 16:00 8.85 4658 13.05
03/23 17:00 8.78 4529 12.81
03/23 18:00 8.73 4436 12.65
03/23 19:00 8.68 4345 12.57
03/23 20:00 8.62 4234 12.57
03/23 21:00 8.59 4179 12.49
03/23 22:00 8.54 4087 12.49
03/23 23:00 8.51 4033 12.41